createdAt,value
2019-03-10T00:00:39.427Z,13.70
2019-03-10T00:03:08.015Z,14.73
2019-03-10T00:05:36.910Z,13.00
2019-03-10T00:08:07.879Z,15.40
2019-03-10T00:10:35.866Z,13.50
2019-03-10T00:13:04.618Z,12.83
2019-03-10T00:15:33.151Z,17.17
2019-03-10T00:18:01.692Z,15.33
2019-03-10T00:20:30.270Z,18.00
2019-03-10T00:22:58.734Z,9.93
2019-03-10T00:25:27.227Z,14.50
2019-03-10T00:27:55.698Z,15.13
2019-03-10T00:30:24.340Z,13.63
2019-03-10T00:32:52.879Z,12.77
2019-03-10T00:35:21.590Z,19.67
2019-03-10T00:37:50.068Z,15.33
2019-03-10T00:40:30.855Z,15.10
2019-03-10T00:43:19.136Z,14.47
2019-03-10T00:46:19.662Z,17.50
2019-03-10T00:48:54.092Z,14.20
2019-03-10T00:51:53.102Z,15.30
2019-03-10T00:54:21.580Z,17.83
2019-03-10T00:56:50.314Z,19.90
2019-03-10T00:59:18.882Z,14.53
2019-03-10T01:01:47.423Z,17.47
2019-03-10T01:04:15.911Z,17.03
2019-03-10T01:06:44.520Z,14.43
2019-03-10T01:09:13.083Z,19.60
2019-03-10T01:11:41.622Z,13.33
2019-03-10T01:14:10.194Z,14.10
2019-03-10T01:16:39.013Z,18.43
2019-03-10T01:19:07.582Z,14.33
2019-03-10T01:21:37.579Z,16.93
2019-03-10T01:24:06.215Z,15.10
2019-03-10T01:26:34.749Z,16.37
2019-03-10T01:29:03.396Z,17.03
2019-03-10T01:31:37.570Z,15.33
2019-03-10T01:34:25.551Z,12.83
2019-03-10T01:36:54.023Z,12.70
2019-03-10T01:39:22.587Z,18.17
2019-03-10T01:41:51.150Z,13.03
2019-03-10T01:44:20.240Z,15.43
2019-03-10T01:46:48.698Z,14.93
2019-03-10T01:49:17.171Z,18.23
2019-03-10T01:51:45.740Z,17.07
2019-03-10T01:54:14.282Z,17.20
2019-03-10T01:56:43.053Z,15.60
2019-03-10T01:59:11.664Z,16.77
2019-03-10T02:01:40.162Z,16.20
2019-03-10T02:04:08.709Z,15.10
2019-03-10T02:06:37.179Z,18.47
2019-03-10T02:09:06.283Z,15.20
2019-03-10T02:11:34.780Z,11.93
2019-03-10T02:14:03.340Z,13.83
2019-03-10T02:16:31.922Z,11.30
2019-03-10T02:19:00.453Z,16.10
2019-03-10T02:21:29.083Z,17.20
2019-03-10T02:23:57.551Z,10.83
2019-03-10T02:26:26.046Z,12.17
2019-03-10T02:28:54.539Z,15.30
2019-03-10T02:31:23.058Z,12.10
2019-03-10T02:33:51.628Z,12.73
2019-03-10T02:36:20.176Z,17.30
2019-03-10T02:38:48.727Z,14.87
2019-03-10T02:41:17.263Z,9.43
2019-03-10T02:43:45.837Z,15.37
2019-03-10T02:46:14.383Z,12.70
2019-03-10T02:48:42.931Z,12.77
2019-03-10T02:51:11.440Z,12.83
2019-03-10T02:53:39.937Z,16.73
2019-03-10T02:56:08.477Z,15.70
2019-03-10T02:58:37.053Z,16.03
2019-03-10T03:01:05.600Z,16.23
2019-03-10T03:03:34.271Z,11.20
2019-03-10T03:06:02.746Z,17.97
2019-03-10T03:08:31.289Z,17.47
2019-03-10T03:10:59.781Z,13.83
2019-03-10T03:13:28.247Z,14.97
2019-03-10T03:15:56.899Z,18.50
2019-03-10T03:18:25.438Z,10.50
2019-03-10T03:20:54.042Z,20.70
2019-03-10T03:23:22.584Z,15.33
2019-03-10T03:25:51.059Z,16.10
2019-03-10T03:28:19.643Z,14.77
2019-03-10T03:30:48.181Z,15.07
2019-03-10T03:33:16.712Z,15.63
2019-03-10T03:35:48.297Z,16.93
2019-03-10T03:38:23.092Z,18.03
2019-03-10T03:41:04.080Z,17.63
2019-03-10T03:43:32.625Z,16.43
2019-03-10T03:46:01.240Z,14.23
2019-03-10T03:48:29.796Z,17.47
2019-03-10T03:50:58.326Z,17.50
2019-03-10T03:53:26.888Z,15.07
2019-03-10T03:55:55.357Z,14.20
2019-03-10T03:58:23.919Z,15.47
2019-03-10T04:00:54.060Z,20.53
2019-03-10T04:03:22.596Z,19.53
2019-03-10T04:05:51.178Z,18.00
2019-03-10T04:08:19.710Z,23.03
2019-03-10T04:10:48.180Z,19.87
2019-03-10T04:13:16.748Z,18.37
2019-03-10T04:15:45.236Z,16.03
2019-03-10T04:18:13.774Z,19.17
2019-03-10T04:20:42.269Z,19.10
2019-03-10T04:23:10.803Z,18.63
2019-03-10T04:25:39.292Z,16.10
2019-03-10T04:28:07.850Z,17.37
2019-03-10T04:30:36.315Z,18.03
2019-03-10T04:33:04.939Z,16.40
2019-03-10T04:35:33.431Z,18.03
2019-03-10T04:38:02.007Z,22.27
2019-03-10T04:40:30.519Z,18.80
2019-03-10T04:42:59.011Z,18.43
2019-03-10T04:45:27.620Z,17.67
2019-03-10T04:47:56.179Z,18.83
2019-03-10T04:50:24.715Z,15.50
2019-03-10T04:52:53.204Z,17.20
2019-03-10T04:55:23.382Z,20.20
2019-03-10T04:58:05.450Z,17.43
2019-03-10T05:00:35.619Z,19.50
2019-03-10T05:03:04.366Z,18.00
2019-03-10T05:05:32.950Z,20.83
2019-03-10T05:08:01.534Z,19.70
2019-03-10T05:10:30.031Z,24.03
2019-03-10T05:12:58.495Z,19.50
2019-03-10T05:15:26.991Z,24.23
2019-03-10T05:17:55.623Z,19.83
2019-03-10T05:20:24.179Z,19.43
2019-03-10T05:22:54.283Z,21.10
2019-03-10T05:25:24.995Z,21.83
2019-03-10T05:27:53.531Z,20.10
2019-03-10T05:30:23.471Z,18.07
2019-03-10T05:32:51.963Z,24.57
2019-03-10T05:35:20.423Z,18.90
2019-03-10T05:37:48.912Z,19.40
2019-03-10T05:40:17.478Z,24.43
2019-03-10T05:42:46.019Z,25.27
2019-03-10T05:45:14.556Z,18.60
2019-03-10T05:47:43.039Z,17.77
2019-03-10T05:50:11.527Z,18.63
2019-03-10T05:52:40.019Z,17.00
2019-03-10T05:55:08.635Z,21.63
2019-03-10T05:57:37.162Z,20.50
2019-03-10T06:00:08.959Z,22.60
2019-03-10T06:02:37.479Z,18.87
2019-03-10T06:05:06.646Z,21.80
2019-03-10T06:07:35.110Z,21.87
2019-03-10T06:10:05.035Z,21.23
2019-03-10T06:12:33.495Z,20.50
2019-03-10T06:15:01.989Z,30.93
2019-03-10T06:17:30.583Z,22.23
2019-03-10T06:19:59.071Z,23.80
2019-03-10T06:22:27.535Z,18.90
2019-03-10T06:24:56.103Z,18.97
2019-03-10T06:27:24.638Z,16.80
2019-03-10T06:29:53.105Z,16.57
2019-03-10T06:32:21.593Z,12.70
2019-03-10T06:34:50.056Z,10.03
2019-03-10T06:37:18.526Z,10.60
2019-03-10T06:39:47.012Z,13.07
2019-03-10T06:42:15.470Z,7.10
2019-03-10T06:44:43.963Z,10.10
2019-03-10T06:47:12.527Z,5.83
2019-03-10T06:49:40.991Z,3.53
2019-03-10T06:52:09.471Z,3.57
2019-03-10T06:54:37.944Z,4.97
2019-03-10T06:57:06.499Z,3.77
2019-03-10T06:59:34.963Z,3.83
2019-03-10T07:02:03.447Z,3.03
2019-03-10T07:04:31.974Z,3.93
2019-03-10T07:07:00.463Z,3.07
2019-03-10T07:09:28.923Z,2.60
2019-03-10T07:11:57.411Z,3.20
2019-03-10T07:14:25.895Z,3.10
2019-03-10T07:16:54.383Z,4.37
2019-03-10T07:19:23.046Z,2.20
2019-03-10T07:21:51.578Z,3.37
2019-03-10T07:24:20.042Z,3.67
2019-03-10T07:26:49.501Z,3.27
2019-03-10T07:29:22.743Z,4.30
2019-03-10T07:31:52.941Z,2.40
2019-03-10T07:34:29.062Z,3.23
2019-03-10T07:37:04.668Z,2.77
2019-03-10T07:39:47.115Z,3.10
2019-03-10T07:42:33.290Z,3.30
2019-03-10T07:45:03.396Z,3.17
2019-03-10T07:47:36.000Z,3.93
2019-03-10T07:50:10.791Z,4.00
2019-03-10T07:52:52.914Z,2.77
2019-03-10T07:55:37.995Z,2.27
2019-03-10T07:58:08.122Z,3.07
2019-03-10T08:00:38.357Z,2.83
2019-03-10T08:03:08.496Z,2.57
2019-03-10T08:05:48.812Z,2.03
2019-03-10T08:08:18.955Z,2.20
2019-03-10T08:10:49.074Z,2.37
2019-03-10T08:13:35.983Z,3.43
2019-03-10T08:16:08.872Z,2.40
2019-03-10T08:18:45.047Z,3.63
2019-03-10T08:21:33.563Z,3.53
2019-03-10T08:24:18.764Z,2.30
2019-03-10T08:26:48.944Z,2.93
2019-03-10T08:29:22.041Z,5.03
2019-03-10T08:32:03.715Z,3.07
2019-03-10T08:34:36.655Z,3.73
2019-03-10T08:37:09.683Z,5.57
2019-03-10T08:39:39.786Z,4.33
2019-03-10T08:42:20.106Z,3.70
2019-03-10T08:44:56.756Z,4.97
2019-03-10T08:47:35.787Z,4.47
2019-03-10T08:50:13.515Z,6.07
2019-03-10T08:52:59.774Z,5.10
2019-03-10T08:55:35.795Z,4.50
2019-03-10T08:58:15.016Z,3.40
2019-03-10T09:00:47.572Z,3.80
2019-03-10T09:03:20.837Z,4.47
2019-03-10T09:05:51.091Z,5.07
2019-03-10T09:08:21.267Z,4.90
2019-03-10T09:10:51.394Z,3.43
2019-03-10T09:13:21.577Z,3.23
2019-03-10T09:15:51.785Z,4.23
2019-03-10T09:18:38.195Z,3.37
2019-03-10T09:21:11.147Z,2.67
2019-03-10T09:23:41.327Z,2.83
2019-03-10T09:26:17.463Z,3.27
2019-03-10T09:28:53.631Z,2.60
2019-03-10T09:31:26.547Z,3.13
2019-03-10T09:34:13.113Z,3.33
2019-03-10T09:36:46.290Z,3.37
2019-03-10T09:39:16.470Z,7.13
2019-03-10T09:41:46.677Z,6.77
2019-03-10T09:44:16.783Z,6.30
2019-03-10T09:46:46.983Z,4.23
2019-03-10T09:49:26.258Z,5.17
2019-03-10T09:52:05.301Z,5.33
2019-03-10T09:54:41.715Z,3.13
2019-03-10T09:57:17.948Z,2.43
2019-03-10T09:59:57.126Z,0.90
2019-03-10T10:02:43.684Z,3.17
2019-03-10T10:05:23.076Z,0.80
2019-03-10T10:07:53.289Z,0.93
2019-03-10T10:10:26.228Z,1.87
2019-03-10T10:12:56.359Z,2.23
2019-03-10T10:15:38.523Z,1.73
2019-03-10T10:18:14.411Z,1.63
2019-03-10T10:20:44.653Z,1.47
2019-03-10T10:23:31.496Z,1.90
2019-03-10T10:26:04.395Z,1.80
2019-03-10T10:28:34.505Z,1.13
2019-03-10T10:31:07.576Z,3.07
2019-03-10T10:33:37.759Z,1.13
2019-03-10T10:36:10.950Z,1.30
2019-03-10T10:38:41.079Z,0.80
2019-03-10T10:41:11.287Z,0.50
2019-03-10T10:43:56.781Z,1.07
2019-03-10T10:46:39.275Z,1.60
2019-03-10T10:49:09.558Z,0.83
2019-03-10T10:51:56.290Z,2.93
2019-03-10T10:54:26.470Z,0.93
2019-03-10T10:57:02.703Z,0.60
2019-03-10T10:59:37.805Z,1.60
2019-03-10T11:02:09.499Z,1.23
2019-03-10T11:04:45.362Z,1.87
2019-03-10T11:07:18.551Z,0.37
2019-03-10T11:09:54.844Z,1.33
2019-03-10T11:12:36.765Z,0.83
2019-03-10T11:15:28.090Z,3.23
2019-03-10T11:18:08.980Z,1.03
2019-03-10T11:20:36.071Z,2.23
2019-03-10T11:23:09.407Z,4.07
2019-03-10T11:25:39.518Z,1.90
2019-03-10T11:28:09.643Z,1.53
2019-03-10T11:30:49.154Z,1.30
2019-03-10T11:33:22.171Z,2.03
2019-03-10T11:36:10.209Z,1.77
2019-03-10T11:38:52.491Z,1.60
2019-03-10T11:41:34.101Z,3.73
2019-03-10T11:44:12.863Z,2.00
2019-03-10T11:46:45.507Z,3.10
2019-03-10T11:49:24.452Z,3.23
2019-03-10T11:52:00.427Z,2.20
2019-03-10T11:54:47.183Z,1.83
2019-03-10T11:57:34.027Z,3.17
2019-03-10T12:00:13.364Z,3.60
2019-03-10T12:02:49.799Z,1.40
2019-03-10T12:05:35.323Z,2.60
2019-03-10T12:08:14.842Z,2.30
2019-03-10T12:10:43.483Z,2.43
2019-03-10T12:13:12.018Z,2.37
2019-03-10T12:15:40.653Z,4.13
2019-03-10T12:18:09.143Z,3.87
2019-03-10T12:20:37.694Z,5.87
2019-03-10T12:23:06.331Z,5.93
2019-03-10T12:25:35.011Z,3.57
2019-03-10T12:28:03.499Z,3.33
2019-03-10T12:30:32.302Z,5.07
2019-03-10T12:33:00.881Z,4.27
2019-03-10T12:35:34.478Z,3.10
2019-03-10T12:37:59.960Z,3.27
2019-03-10T12:40:28.555Z,2.93
2019-03-10T12:42:57.114Z,2.53
2019-03-10T12:45:25.663Z,2.37
2019-03-10T12:47:54.136Z,3.57
2019-03-10T12:50:22.719Z,1.67
2019-03-10T12:52:51.184Z,2.13
2019-03-10T12:55:19.783Z,2.57
2019-03-10T12:57:48.370Z,5.17
2019-03-10T13:00:17.758Z,2.73
2019-03-10T13:02:46.359Z,4.60
2019-03-10T13:05:15.038Z,7.07
2019-03-10T13:07:43.603Z,4.20
2019-03-10T13:10:12.879Z,3.03
2019-03-10T13:12:41.508Z,4.50
2019-03-10T13:15:12.115Z,5.47
2019-03-10T13:17:40.831Z,4.13
2019-03-10T13:20:11.311Z,4.07
2019-03-10T13:22:40.121Z,8.10
2019-03-10T13:25:10.696Z,5.23
2019-03-10T13:27:39.191Z,8.57
2019-03-10T13:30:12.966Z,4.57
2019-03-10T13:32:44.074Z,8.93
2019-03-10T13:35:11.891Z,6.93
2019-03-10T13:37:40.491Z,4.30
2019-03-10T13:40:14.185Z,6.50
2019-03-10T13:42:48.558Z,6.87
2019-03-10T13:45:18.358Z,7.87
2019-03-10T13:47:46.939Z,8.67
2019-03-10T13:50:16.248Z,6.00
2019-03-10T13:52:44.866Z,8.37
2019-03-10T13:55:13.970Z,7.67
2019-03-10T13:57:42.503Z,8.90
2019-03-10T14:00:20.955Z,8.17
2019-03-10T14:02:49.629Z,8.67
2019-03-10T14:05:18.259Z,7.50
2019-03-10T14:07:46.835Z,8.57
2019-03-10T14:10:15.847Z,7.77
2019-03-10T14:12:44.404Z,10.17
2019-03-10T14:15:14.231Z,6.77
2019-03-10T14:17:42.722Z,7.47
2019-03-10T14:20:17.576Z,9.67
2019-03-10T14:22:46.036Z,8.93
2019-03-10T14:25:15.660Z,6.83
2019-03-10T14:27:44.831Z,8.47
2019-03-10T14:30:17.911Z,6.87
2019-03-10T14:32:46.615Z,6.57
2019-03-10T14:35:34.490Z,4.87
2019-03-10T14:38:03.211Z,6.60
2019-03-10T14:40:31.819Z,8.47
2019-03-10T14:43:00.463Z,7.03
2019-03-10T14:45:29.071Z,10.53
2019-03-10T14:47:57.538Z,4.73
2019-03-10T14:50:26.099Z,6.43
2019-03-10T14:52:55.011Z,4.60
2019-03-10T14:55:23.647Z,5.77
2019-03-10T14:57:52.263Z,8.37
2019-03-10T15:00:28.479Z,10.33
2019-03-10T15:02:57.012Z,6.87
2019-03-10T15:05:25.719Z,9.53
2019-03-10T15:07:54.278Z,5.60
2019-03-10T15:10:22.998Z,4.40
2019-03-10T15:12:51.566Z,6.70
2019-03-10T15:15:22.861Z,5.70
2019-03-10T15:17:51.459Z,12.33
2019-03-10T15:20:21.600Z,5.60
2019-03-10T15:22:50.347Z,2.93
2019-03-10T15:25:20.253Z,9.00
2019-03-10T15:27:48.792Z,2.83
2019-03-10T15:30:19.168Z,5.57
2019-03-10T15:32:47.795Z,4.30
2019-03-10T15:35:17.279Z,2.50
2019-03-10T15:37:45.975Z,3.77
2019-03-10T15:40:17.985Z,4.13
2019-03-10T15:42:46.616Z,3.20
2019-03-10T15:45:16.286Z,3.13
2019-03-10T15:47:45.029Z,2.73
2019-03-10T15:50:16.875Z,4.60
2019-03-10T15:53:04.875Z,2.50
2019-03-10T15:55:33.411Z,6.63
2019-03-10T15:58:03.898Z,3.33
2019-03-10T16:00:32.679Z,4.30
2019-03-10T16:03:01.223Z,2.10
2019-03-10T16:05:29.787Z,3.83
2019-03-10T16:07:58.324Z,2.67
2019-03-10T16:10:27.619Z,5.13
2019-03-10T16:12:56.203Z,3.30
2019-03-10T16:15:32.191Z,5.47
2019-03-10T16:18:00.919Z,4.47
2019-03-10T16:20:29.595Z,3.13
2019-03-10T16:22:58.063Z,3.33
2019-03-10T16:25:26.627Z,3.53
2019-03-10T16:27:55.086Z,3.83
2019-03-10T16:30:28.676Z,3.90
2019-03-10T16:32:57.243Z,3.27
2019-03-10T16:35:25.811Z,3.63
2019-03-10T16:37:54.339Z,2.00
2019-03-10T16:40:23.006Z,3.90
2019-03-10T16:42:51.647Z,2.53
2019-03-10T16:45:28.575Z,5.63
2019-03-10T16:47:58.774Z,4.57
2019-03-10T16:50:28.092Z,2.93
2019-03-10T16:52:56.791Z,3.63
2019-03-10T16:55:25.295Z,4.20
2019-03-10T16:57:53.843Z,6.20
2019-03-10T17:00:22.386Z,9.17
2019-03-10T17:02:52.715Z,4.00
2019-03-10T17:05:22.038Z,3.30
2019-03-10T17:07:50.732Z,3.33
2019-03-10T17:10:22.279Z,2.40
2019-03-10T17:12:50.938Z,3.23
2019-03-10T17:15:21.110Z,3.20
2019-03-10T17:17:49.743Z,3.23
2019-03-10T17:20:19.667Z,3.57
2019-03-10T17:22:48.320Z,4.67
2019-03-10T17:25:17.502Z,2.50
2019-03-10T17:27:46.320Z,3.53
2019-03-10T17:30:19.665Z,2.90
2019-03-10T17:32:48.459Z,1.93
2019-03-10T17:35:17.958Z,3.73
2019-03-10T17:37:48.556Z,5.00
2019-03-10T17:40:26.557Z,3.13
2019-03-10T17:42:55.264Z,3.70
2019-03-10T17:45:24.897Z,4.30
2019-03-10T17:47:53.429Z,4.33
2019-03-10T17:50:22.163Z,2.77
2019-03-10T17:52:51.136Z,3.70
2019-03-10T17:55:20.951Z,2.90
2019-03-10T17:57:49.839Z,5.00
2019-03-10T18:00:21.059Z,3.63
2019-03-10T18:02:49.776Z,3.37
2019-03-10T18:05:18.508Z,1.80
2019-03-10T18:07:47.075Z,2.40
2019-03-10T18:10:16.876Z,1.33
2019-03-10T18:12:45.583Z,0.87
2019-03-10T18:15:17.586Z,1.80
2019-03-10T18:17:46.283Z,2.27
2019-03-10T18:20:19.783Z,0.73
2019-03-10T18:22:48.341Z,2.57
2019-03-10T18:25:16.962Z,2.60
2019-03-10T18:27:45.520Z,1.40
2019-03-10T18:30:18.969Z,1.53
2019-03-10T18:32:47.675Z,0.83
2019-03-10T18:35:16.435Z,1.67
2019-03-10T18:37:45.052Z,1.47
2019-03-10T18:40:22.199Z,2.10
2019-03-10T18:42:50.729Z,1.13
2019-03-10T18:45:20.143Z,1.50
2019-03-10T18:47:48.851Z,0.77
2019-03-10T18:50:19.539Z,1.87
2019-03-10T18:52:48.399Z,2.50
2019-03-10T18:55:18.015Z,1.73
2019-03-10T18:57:46.692Z,4.57
2019-03-10T19:00:31.416Z,2.63
2019-03-10T19:03:54.807Z,2.93
2019-03-10T19:06:23.314Z,2.77
2019-03-10T19:08:51.843Z,1.87
2019-03-10T19:11:20.428Z,2.03
2019-03-10T19:13:49.930Z,2.13
2019-03-10T19:16:18.407Z,2.20
2019-03-10T19:18:46.866Z,2.10
2019-03-10T19:21:15.444Z,1.93
2019-03-10T19:23:44.062Z,1.77
2019-03-10T19:26:12.668Z,3.10
2019-03-10T19:28:41.223Z,1.63
2019-03-10T19:31:09.692Z,2.70
2019-03-10T19:33:38.244Z,2.17
2019-03-10T19:36:06.724Z,2.47
2019-03-10T19:38:35.289Z,1.67
2019-03-10T19:41:03.748Z,3.13
2019-03-10T19:43:32.331Z,1.27
2019-03-10T19:46:00.859Z,1.10
2019-03-10T19:48:29.420Z,1.33
2019-03-10T19:50:57.955Z,1.30
2019-03-10T19:53:26.416Z,2.67
2019-03-10T19:55:54.978Z,1.63
2019-03-10T19:58:23.450Z,1.83
2019-03-10T20:00:51.936Z,0.67
2019-03-10T20:03:20.407Z,0.90
2019-03-10T20:05:49.092Z,0.80
2019-03-10T20:08:17.555Z,1.17
2019-03-10T20:10:46.115Z,0.60
2019-03-10T20:13:14.575Z,1.17
2019-03-10T20:15:43.079Z,1.30
2019-03-10T20:18:11.546Z,2.13
2019-03-10T20:20:40.171Z,0.73
2019-03-10T20:23:08.658Z,0.50
2019-03-10T20:25:37.204Z,0.60
2019-03-10T20:28:05.703Z,4.30
2019-03-10T20:30:34.172Z,1.50
2019-03-10T20:33:02.723Z,1.63
2019-03-10T20:35:31.353Z,1.33
2019-03-10T20:37:59.966Z,1.60
2019-03-10T20:40:29.073Z,1.00
2019-03-10T20:42:57.626Z,2.10
2019-03-10T20:45:26.165Z,1.40
2019-03-10T20:47:56.630Z,0.80
2019-03-10T20:50:25.112Z,0.73
2019-03-10T20:52:53.618Z,2.13
2019-03-10T20:55:22.175Z,1.37
2019-03-10T20:57:50.808Z,1.00
2019-03-10T21:00:21.655Z,1.03
2019-03-10T21:02:50.226Z,0.90
2019-03-10T21:05:18.759Z,1.30
2019-03-10T21:07:47.286Z,0.70
2019-03-10T21:10:26.978Z,4.20
2019-03-10T21:12:55.538Z,2.33
2019-03-10T21:15:26.161Z,1.77
2019-03-10T21:17:54.823Z,1.97
2019-03-10T21:20:24.516Z,2.87
2019-03-10T21:22:53.125Z,1.00
2019-03-10T21:25:30.737Z,2.23
2019-03-10T21:28:11.825Z,3.07
2019-03-10T21:30:40.339Z,2.63
2019-03-10T21:33:08.914Z,1.80
2019-03-10T21:35:37.540Z,3.53
2019-03-10T21:38:06.102Z,2.70
2019-03-10T21:40:34.930Z,4.27
2019-03-10T21:43:03.699Z,4.97
2019-03-10T21:45:32.232Z,4.47
2019-03-10T21:48:00.858Z,6.20
2019-03-10T21:50:29.483Z,7.27
2019-03-10T21:52:59.399Z,4.30
2019-03-10T21:55:27.932Z,4.70
2019-03-10T21:57:56.490Z,7.07
2019-03-10T22:00:25.120Z,6.00
2019-03-10T22:02:53.754Z,5.13
2019-03-10T22:05:22.379Z,8.37
2019-03-10T22:07:51.037Z,5.43
2019-03-10T22:10:26.882Z,4.93
2019-03-10T22:12:50.752Z,3.50
2019-03-10T22:15:20.271Z,4.00
2019-03-10T22:17:48.827Z,4.67
2019-03-10T22:20:19.572Z,4.07
2019-03-10T22:22:49.832Z,5.90
2019-03-10T22:25:18.685Z,3.80
2019-03-10T22:27:47.220Z,5.53
2019-03-10T22:30:36.956Z,5.43
2019-03-10T22:33:05.571Z,4.53
2019-03-10T22:35:34.623Z,4.37
2019-03-10T22:38:03.152Z,4.97
2019-03-10T22:40:31.712Z,4.90
2019-03-10T22:43:00.275Z,4.73
2019-03-10T22:45:28.871Z,5.00
2019-03-10T22:47:57.355Z,6.50
2019-03-10T22:50:25.948Z,8.73
2019-03-10T22:52:54.407Z,6.50
2019-03-10T22:55:22.916Z,5.23
2019-03-10T22:57:51.531Z,4.93
2019-03-10T23:00:22.380Z,10.03
2019-03-10T23:02:51.170Z,9.00
2019-03-10T23:05:19.970Z,5.93
2019-03-10T23:07:48.578Z,5.73
2019-03-10T23:10:17.112Z,5.77
2019-03-10T23:12:45.688Z,6.87
2019-03-10T23:15:15.486Z,6.10
2019-03-10T23:17:44.151Z,5.40
2019-03-10T23:20:14.275Z,6.47
2019-03-10T23:22:42.831Z,8.97
2019-03-10T23:25:11.864Z,5.73
2019-03-10T23:27:40.416Z,6.43
2019-03-10T23:30:17.150Z,8.87
2019-03-10T23:32:45.656Z,7.63
2019-03-10T23:35:14.323Z,8.30
2019-03-10T23:37:42.846Z,4.90
2019-03-10T23:40:21.830Z,11.70
2019-03-10T23:42:50.287Z,9.27
2019-03-10T23:45:19.288Z,7.30
2019-03-10T23:47:47.870Z,7.03
2019-03-10T23:50:17.667Z,9.07
2019-03-10T23:52:46.130Z,10.60
2019-03-10T23:55:15.355Z,7.83
2019-03-10T23:57:43.976Z,9.93
